sensor_id;sensor_type;location;lat;lon;timestamp;P1;durP1;ratioP1;P2;durP2;ratioP2
23410;SDS011;11878;51.774;7.220;2024-02-15T00:02:58;14.77;;;8.87;;
23410;SDS011;11878;51.774;7.220;2024-02-15T00:06:17;19.13;;;8.93;;
23410;SDS011;11878;51.774;7.220;2024-02-15T00:09:19;17.23;;;9.37;;
23410;SDS011;11878;51.774;7.220;2024-02-15T00:12:21;15.83;;;10.00;;
23410;SDS011;11878;51.774;7.220;2024-02-15T00:15:23;16.70;;;9.07;;
23410;SDS011;11878;51.774;7.220;2024-02-15T00:18:25;15.43;;;9.77;;
23410;SDS011;11878;51.774;7.220;2024-02-15T00:21:28;20.17;;;9.07;;
23410;SDS011;11878;51.774;7.220;2024-02-15T00:24:30;16.57;;;10.17;;
23410;SDS011;11878;51.774;7.220;2024-02-15T00:27:32;14.13;;;8.80;;
23410;SDS011;11878;51.774;7.220;2024-02-15T00:30:36;12.83;;;8.00;;
23410;SDS011;11878;51.774;7.220;2024-02-15T00:33:38;30.73;;;9.80;;
23410;SDS011;11878;51.774;7.220;2024-02-15T00:36:43;18.10;;;8.77;;
23410;SDS011;11878;51.774;7.220;2024-02-15T00:39:45;16.00;;;8.03;;
23410;SDS011;11878;51.774;7.220;2024-02-15T00:42:47;16.37;;;8.87;;
23410;SDS011;11878;51.774;7.220;2024-02-15T00:45:49;13.67;;;7.30;;
23410;SDS011;11878;51.774;7.220;2024-02-15T00:48:51;17.07;;;8.53;;
23410;SDS011;11878;51.774;7.220;2024-02-15T00:51:53;21.63;;;9.63;;
23410;SDS011;11878;51.774;7.220;2024-02-15T00:54:55;14.40;;;7.70;;
23410;SDS011;11878;51.774;7.220;2024-02-15T00:57:58;17.80;;;8.07;;
23410;SDS011;11878;51.774;7.220;2024-02-15T01:00:59;16.93;;;8.03;;
23410;SDS011;11878;51.774;7.220;2024-02-15T01:04:01;13.47;;;7.67;;
23410;SDS011;11878;51.774;7.220;2024-02-15T01:07:04;17.43;;;8.43;;
23410;SDS011;11878;51.774;7.220;2024-02-15T01:10:06;16.20;;;8.60;;
23410;SDS011;11878;51.774;7.220;2024-02-15T01:13:08;18.57;;;8.47;;
23410;SDS011;11878;51.774;7.220;2024-02-15T01:16:10;11.33;;;6.43;;
23410;SDS011;11878;51.774;7.220;2024-02-15T01:19:12;15.93;;;6.73;;
23410;SDS011;11878;51.774;7.220;2024-02-15T01:22:15;14.33;;;7.63;;
23410;SDS011;11878;51.774;7.220;2024-02-15T01:25:18;14.53;;;7.07;;
23410;SDS011;11878;51.774;7.220;2024-02-15T01:28:20;18.67;;;8.00;;
23410;SDS011;11878;51.774;7.220;2024-02-15T01:31:22;13.60;;;7.80;;
23410;SDS011;11878;51.774;7.220;2024-02-15T01:34:24;16.33;;;7.97;;
23410;SDS011;11878;51.774;7.220;2024-02-15T01:37:26;18.37;;;7.30;;
23410;SDS011;11878;51.774;7.220;2024-02-15T01:40:28;13.70;;;8.13;;
23410;SDS011;11878;51.774;7.220;2024-02-15T01:43:30;15.77;;;7.13;;
23410;SDS011;11878;51.774;7.220;2024-02-15T01:46:32;15.87;;;7.40;;
23410;SDS011;11878;51.774;7.220;2024-02-15T01:49:35;11.90;;;8.03;;
23410;SDS011;11878;51.774;7.220;2024-02-15T01:52:37;12.97;;;7.37;;
23410;SDS011;11878;51.774;7.220;2024-02-15T01:55:39;12.27;;;7.50;;
23410;SDS011;11878;51.774;7.220;2024-02-15T01:58:41;12.43;;;7.50;;
23410;SDS011;11878;51.774;7.220;2024-02-15T02:01:47;13.73;;;7.90;;
23410;SDS011;11878;51.774;7.220;2024-02-15T02:04:48;13.03;;;7.30;;
23410;SDS011;11878;51.774;7.220;2024-02-15T02:07:51;12.07;;;7.50;;
23410;SDS011;11878;51.774;7.220;2024-02-15T02:10:53;14.30;;;7.80;;
23410;SDS011;11878;51.774;7.220;2024-02-15T02:13:55;22.23;;;9.27;;
23410;SDS011;11878;51.774;7.220;2024-02-15T02:17:10;18.43;;;9.33;;
23410;SDS011;11878;51.774;7.220;2024-02-15T02:20:15;19.00;;;9.90;;
23410;SDS011;11878;51.774;7.220;2024-02-15T02:23:18;19.47;;;11.23;;
23410;SDS011;11878;51.774;7.220;2024-02-15T02:26:24;19.73;;;11.37;;
23410;SDS011;11878;51.774;7.220;2024-02-15T02:29:26;20.97;;;11.40;;
23410;SDS011;11878;51.774;7.220;2024-02-15T02:32:34;26.30;;;12.10;;
23410;SDS011;11878;51.774;7.220;2024-02-15T02:35:37;28.07;;;11.73;;
23410;SDS011;11878;51.774;7.220;2024-02-15T02:38:41;25.30;;;11.53;;
23410;SDS011;11878;51.774;7.220;2024-02-15T02:41:46;32.60;;;13.53;;
23410;SDS011;11878;51.774;7.220;2024-02-15T02:44:48;22.67;;;12.67;;
23410;SDS011;11878;51.774;7.220;2024-02-15T02:47:51;23.20;;;11.23;;
23410;SDS011;11878;51.774;7.220;2024-02-15T02:50:55;24.17;;;11.20;;
23410;SDS011;11878;51.774;7.220;2024-02-15T02:53:56;21.30;;;10.87;;
23410;SDS011;11878;51.774;7.220;2024-02-15T02:56:59;23.17;;;10.50;;
23410;SDS011;11878;51.774;7.220;2024-02-15T03:00:02;27.20;;;11.13;;
23410;SDS011;11878;51.774;7.220;2024-02-15T03:03:14;22.93;;;11.37;;
23410;SDS011;11878;51.774;7.220;2024-02-15T03:06:16;21.43;;;10.33;;
23410;SDS011;11878;51.774;7.220;2024-02-15T03:09:18;23.03;;;7.83;;
23410;SDS011;11878;51.774;7.220;2024-02-15T03:12:22;18.13;;;8.67;;
23410;SDS011;11878;51.774;7.220;2024-02-15T03:15:24;18.20;;;8.80;;
23410;SDS011;11878;51.774;7.220;2024-02-15T03:18:25;18.23;;;9.00;;
23410;SDS011;11878;51.774;7.220;2024-02-15T03:21:28;19.57;;;8.10;;
23410;SDS011;11878;51.774;7.220;2024-02-15T03:24:30;17.17;;;8.73;;
23410;SDS011;11878;51.774;7.220;2024-02-15T03:27:33;25.40;;;7.87;;
23410;SDS011;11878;51.774;7.220;2024-02-15T03:30:37;18.80;;;7.37;;
23410;SDS011;11878;51.774;7.220;2024-02-15T03:33:38;16.63;;;7.23;;
23410;SDS011;11878;51.774;7.220;2024-02-15T03:36:41;17.70;;;7.93;;
23410;SDS011;11878;51.774;7.220;2024-02-15T03:39:43;19.47;;;7.37;;
23410;SDS011;11878;51.774;7.220;2024-02-15T03:42:45;14.03;;;6.33;;
23410;SDS011;11878;51.774;7.220;2024-02-15T03:45:53;16.53;;;6.97;;
23410;SDS011;11878;51.774;7.220;2024-02-15T03:48:55;15.97;;;5.80;;
23410;SDS011;11878;51.774;7.220;2024-02-15T03:52:00;13.17;;;6.17;;
23410;SDS011;11878;51.774;7.220;2024-02-15T03:55:02;15.90;;;5.17;;
23410;SDS011;11878;51.774;7.220;2024-02-15T03:58:04;13.37;;;5.80;;
23410;SDS011;11878;51.774;7.220;2024-02-15T04:01:07;18.50;;;5.40;;
23410;SDS011;11878;51.774;7.220;2024-02-15T04:04:11;10.73;;;4.60;;
23410;SDS011;11878;51.774;7.220;2024-02-15T04:07:14;18.43;;;4.73;;
23410;SDS011;11878;51.774;7.220;2024-02-15T04:10:17;10.60;;;5.30;;
23410;SDS011;11878;51.774;7.220;2024-02-15T04:13:20;13.13;;;4.50;;
23410;SDS011;11878;51.774;7.220;2024-02-15T04:16:21;10.53;;;4.10;;
23410;SDS011;11878;51.774;7.220;2024-02-15T04:19:23;8.23;;;4.43;;
23410;SDS011;11878;51.774;7.220;2024-02-15T04:22:25;10.83;;;4.90;;
23410;SDS011;11878;51.774;7.220;2024-02-15T04:25:27;7.57;;;4.00;;
23410;SDS011;11878;51.774;7.220;2024-02-15T04:28:29;10.93;;;4.50;;
23410;SDS011;11878;51.774;7.220;2024-02-15T04:31:32;16.13;;;4.60;;
23410;SDS011;11878;51.774;7.220;2024-02-15T04:34:38;9.77;;;4.30;;
23410;SDS011;11878;51.774;7.220;2024-02-15T04:37:43;13.13;;;3.93;;
23410;SDS011;11878;51.774;7.220;2024-02-15T04:40:44;11.03;;;3.57;;
23410;SDS011;11878;51.774;7.220;2024-02-15T04:43:46;10.70;;;4.17;;
23410;SDS011;11878;51.774;7.220;2024-02-15T04:46:48;10.83;;;3.67;;
23410;SDS011;11878;51.774;7.220;2024-02-15T04:49:53;5.23;;;3.50;;
23410;SDS011;11878;51.774;7.220;2024-02-15T04:52:55;7.73;;;4.03;;
23410;SDS011;11878;51.774;7.220;2024-02-15T04:55:57;8.20;;;3.77;;
23410;SDS011;11878;51.774;7.220;2024-02-15T04:59:02;11.83;;;3.13;;
23410;SDS011;11878;51.774;7.220;2024-02-15T05:02:04;7.17;;;3.50;;
23410;SDS011;11878;51.774;7.220;2024-02-15T05:05:08;10.87;;;3.43;;
23410;SDS011;11878;51.774;7.220;2024-02-15T05:08:15;4.90;;;3.20;;
23410;SDS011;11878;51.774;7.220;2024-02-15T05:11:17;8.27;;;3.40;;
23410;SDS011;11878;51.774;7.220;2024-02-15T05:14:23;5.47;;;2.77;;
23410;SDS011;11878;51.774;7.220;2024-02-15T05:17:26;8.13;;;3.03;;
23410;SDS011;11878;51.774;7.220;2024-02-15T05:20:31;9.67;;;3.50;;
23410;SDS011;11878;51.774;7.220;2024-02-15T05:23:33;15.50;;;3.13;;
23410;SDS011;11878;51.774;7.220;2024-02-15T05:26:35;9.17;;;2.60;;
23410;SDS011;11878;51.774;7.220;2024-02-15T05:29:37;9.23;;;3.30;;
23410;SDS011;11878;51.774;7.220;2024-02-15T05:32:41;9.30;;;3.40;;
23410;SDS011;11878;51.774;7.220;2024-02-15T05:35:45;15.33;;;2.73;;
23410;SDS011;11878;51.774;7.220;2024-02-15T05:38:51;7.30;;;2.23;;
23410;SDS011;11878;51.774;7.220;2024-02-15T05:41:54;11.23;;;2.63;;
23410;SDS011;11878;51.774;7.220;2024-02-15T05:48:31;12.37;;;3.23;;
23410;SDS011;11878;51.774;7.220;2024-02-15T05:51:33;11.13;;;2.67;;
23410;SDS011;11878;51.774;7.220;2024-02-15T05:54:35;8.37;;;2.47;;
23410;SDS011;11878;51.774;7.220;2024-02-15T05:57:37;10.47;;;3.03;;
23410;SDS011;11878;51.774;7.220;2024-02-15T06:00:39;11.70;;;3.97;;
23410;SDS011;11878;51.774;7.220;2024-02-15T06:03:42;12.47;;;3.43;;
23410;SDS011;11878;51.774;7.220;2024-02-15T06:06:46;5.13;;;2.50;;
23410;SDS011;11878;51.774;7.220;2024-02-15T06:09:52;12.07;;;3.10;;
23410;SDS011;11878;51.774;7.220;2024-02-15T06:12:54;6.67;;;2.13;;
23410;SDS011;11878;51.774;7.220;2024-02-15T06:15:56;9.33;;;3.20;;
23410;SDS011;11878;51.774;7.220;2024-02-15T06:18:58;7.27;;;2.90;;
23410;SDS011;11878;51.774;7.220;2024-02-15T06:22:00;9.80;;;3.13;;
23410;SDS011;11878;51.774;7.220;2024-02-15T06:25:02;10.87;;;2.70;;
23410;SDS011;11878;51.774;7.220;2024-02-15T06:28:04;7.90;;;2.50;;
23410;SDS011;11878;51.774;7.220;2024-02-15T06:31:14;3.70;;;1.97;;
23410;SDS011;11878;51.774;7.220;2024-02-15T06:34:35;6.47;;;2.47;;
23410;SDS011;11878;51.774;7.220;2024-02-15T06:37:55;5.53;;;1.67;;
23410;SDS011;11878;51.774;7.220;2024-02-15T06:41:15;4.80;;;1.90;;
23410;SDS011;11878;51.774;7.220;2024-02-15T06:44:17;10.37;;;2.03;;
23410;SDS011;11878;51.774;7.220;2024-02-15T06:47:19;7.40;;;2.53;;
23410;SDS011;11878;51.774;7.220;2024-02-15T06:50:21;5.53;;;1.90;;
23410;SDS011;11878;51.774;7.220;2024-02-15T06:53:23;6.57;;;1.83;;
23410;SDS011;11878;51.774;7.220;2024-02-15T06:56:25;3.57;;;1.43;;
23410;SDS011;11878;51.774;7.220;2024-02-15T06:59:27;9.63;;;2.00;;
23410;SDS011;11878;51.774;7.220;2024-02-15T07:02:29;2.60;;;1.57;;
23410;SDS011;11878;51.774;7.220;2024-02-15T07:05:31;3.77;;;1.37;;
23410;SDS011;11878;51.774;7.220;2024-02-15T07:08:33;4.77;;;1.77;;
23410;SDS011;11878;51.774;7.220;2024-02-15T07:11:35;5.30;;;2.00;;
23410;SDS011;11878;51.774;7.220;2024-02-15T07:14:37;3.23;;;1.47;;
23410;SDS011;11878;51.774;7.220;2024-02-15T07:17:39;8.30;;;1.73;;
23410;SDS011;11878;51.774;7.220;2024-02-15T07:20:41;6.43;;;2.00;;
23410;SDS011;11878;51.774;7.220;2024-02-15T07:23:43;3.90;;;1.37;;
23410;SDS011;11878;51.774;7.220;2024-02-15T07:26:45;7.07;;;2.57;;
23410;SDS011;11878;51.774;7.220;2024-02-15T07:29:47;7.93;;;3.53;;
23410;SDS011;11878;51.774;7.220;2024-02-15T07:32:49;8.70;;;3.03;;
23410;SDS011;11878;51.774;7.220;2024-02-15T07:35:51;7.20;;;3.10;;
23410;SDS011;11878;51.774;7.220;2024-02-15T07:38:53;5.40;;;2.20;;
23410;SDS011;11878;51.774;7.220;2024-02-15T07:41:59;6.93;;;1.87;;
23410;SDS011;11878;51.774;7.220;2024-02-15T07:45:01;11.53;;;2.50;;
23410;SDS011;11878;51.774;7.220;2024-02-15T07:48:06;4.90;;;1.90;;
23410;SDS011;11878;51.774;7.220;2024-02-15T07:51:08;8.47;;;1.70;;
23410;SDS011;11878;51.774;7.220;2024-02-15T07:54:11;4.27;;;1.63;;
23410;SDS011;11878;51.774;7.220;2024-02-15T07:57:13;8.90;;;1.93;;
23410;SDS011;11878;51.774;7.220;2024-02-15T08:00:15;6.97;;;2.20;;
23410;SDS011;11878;51.774;7.220;2024-02-15T08:03:18;3.23;;;1.80;;
23410;SDS011;11878;51.774;7.220;2024-02-15T08:06:20;4.47;;;1.67;;
23410;SDS011;11878;51.774;7.220;2024-02-15T08:09:22;11.57;;;2.03;;
23410;SDS011;11878;51.774;7.220;2024-02-15T08:12:25;6.93;;;2.10;;
23410;SDS011;11878;51.774;7.220;2024-02-15T08:15:27;3.50;;;1.87;;
23410;SDS011;11878;51.774;7.220;2024-02-15T08:18:29;3.17;;;1.60;;
23410;SDS011;11878;51.774;7.220;2024-02-15T08:21:32;4.67;;;1.73;;
23410;SDS011;11878;51.774;7.220;2024-02-15T08:24:34;9.00;;;1.97;;
23410;SDS011;11878;51.774;7.220;2024-02-15T08:27:37;5.13;;;1.93;;
23410;SDS011;11878;51.774;7.220;2024-02-15T08:30:46;8.80;;;2.40;;
23410;SDS011;11878;51.774;7.220;2024-02-15T08:33:48;5.73;;;2.10;;
23410;SDS011;11878;51.774;7.220;2024-02-15T08:36:51;5.17;;;1.93;;
23410;SDS011;11878;51.774;7.220;2024-02-15T08:39:53;2.83;;;1.67;;
23410;SDS011;11878;51.774;7.220;2024-02-15T08:42:54;3.47;;;1.73;;
23410;SDS011;11878;51.774;7.220;2024-02-15T08:45:56;4.87;;;1.20;;
23410;SDS011;11878;51.774;7.220;2024-02-15T08:48:58;8.03;;;1.60;;
23410;SDS011;11878;51.774;7.220;2024-02-15T08:52:02;3.90;;;1.70;;
23410;SDS011;11878;51.774;7.220;2024-02-15T08:55:09;11.43;;;2.03;;
23410;SDS011;11878;51.774;7.220;2024-02-15T08:58:15;6.40;;;1.50;;
23410;SDS011;11878;51.774;7.220;2024-02-15T09:01:17;6.63;;;1.73;;
23410;SDS011;11878;51.774;7.220;2024-02-15T09:04:19;2.70;;;1.47;;
23410;SDS011;11878;51.774;7.220;2024-02-15T09:07:21;7.00;;;1.87;;
23410;SDS011;11878;51.774;7.220;2024-02-15T09:10:23;5.73;;;1.97;;
23410;SDS011;11878;51.774;7.220;2024-02-15T09:13:25;13.77;;;1.90;;
23410;SDS011;11878;51.774;7.220;2024-02-15T09:16:27;3.47;;;1.77;;
23410;SDS011;11878;51.774;7.220;2024-02-15T09:19:29;10.63;;;2.10;;
23410;SDS011;11878;51.774;7.220;2024-02-15T09:22:32;6.80;;;2.27;;
23410;SDS011;11878;51.774;7.220;2024-02-15T09:25:34;12.10;;;2.63;;
23410;SDS011;11878;51.774;7.220;2024-02-15T09:28:39;6.83;;;1.80;;
23410;SDS011;11878;51.774;7.220;2024-02-15T09:31:42;2.10;;;1.37;;
23410;SDS011;11878;51.774;7.220;2024-02-15T09:34:44;6.67;;;1.97;;
23410;SDS011;11878;51.774;7.220;2024-02-15T09:37:47;7.23;;;1.83;;
23410;SDS011;11878;51.774;7.220;2024-02-15T09:40:50;5.97;;;1.70;;
23410;SDS011;11878;51.774;7.220;2024-02-15T09:43:52;6.00;;;1.50;;
23410;SDS011;11878;51.774;7.220;2024-02-15T09:47:04;4.93;;;2.17;;
23410;SDS011;11878;51.774;7.220;2024-02-15T09:50:07;5.57;;;1.73;;
23410;SDS011;11878;51.774;7.220;2024-02-15T09:53:09;9.03;;;2.27;;
23410;SDS011;11878;51.774;7.220;2024-02-15T09:56:12;4.03;;;1.50;;
23410;SDS011;11878;51.774;7.220;2024-02-15T09:59:15;3.60;;;1.90;;
23410;SDS011;11878;51.774;7.220;2024-02-15T10:02:17;3.77;;;1.60;;
23410;SDS011;11878;51.774;7.220;2024-02-15T10:05:20;6.53;;;1.63;;
23410;SDS011;11878;51.774;7.220;2024-02-15T10:08:22;5.97;;;1.50;;
23410;SDS011;11878;51.774;7.220;2024-02-15T10:11:26;7.50;;;1.30;;
23410;SDS011;11878;51.774;7.220;2024-02-15T10:14:28;6.43;;;1.50;;
23410;SDS011;11878;51.774;7.220;2024-02-15T10:17:31;8.30;;;1.80;;
23410;SDS011;11878;51.774;7.220;2024-02-15T10:20:37;10.53;;;1.83;;
23410;SDS011;11878;51.774;7.220;2024-02-15T10:23:46;8.17;;;2.27;;
23410;SDS011;11878;51.774;7.220;2024-02-15T10:26:48;5.43;;;1.70;;
23410;SDS011;11878;51.774;7.220;2024-02-15T10:29:50;4.43;;;2.53;;
23410;SDS011;11878;51.774;7.220;2024-02-15T10:32:54;4.30;;;1.90;;
23410;SDS011;11878;51.774;7.220;2024-02-15T10:36:07;4.90;;;2.03;;
23410;SDS011;11878;51.774;7.220;2024-02-15T10:39:12;5.40;;;1.97;;
23410;SDS011;11878;51.774;7.220;2024-02-15T10:42:19;4.27;;;1.93;;
23410;SDS011;11878;51.774;7.220;2024-02-15T10:45:21;2.33;;;1.13;;
23410;SDS011;11878;51.774;7.220;2024-02-15T10:48:23;6.10;;;1.80;;
23410;SDS011;11878;51.774;7.220;2024-02-15T10:51:26;6.97;;;1.87;;
23410;SDS011;11878;51.774;7.220;2024-02-15T10:57:37;9.20;;;1.77;;
23410;SDS011;11878;51.774;7.220;2024-02-15T11:00:44;5.00;;;1.90;;
23410;SDS011;11878;51.774;7.220;2024-02-15T11:03:50;4.87;;;1.50;;
23410;SDS011;11878;51.774;7.220;2024-02-15T11:06:57;5.10;;;1.70;;
23410;SDS011;11878;51.774;7.220;2024-02-15T11:10:00;4.50;;;1.20;;
23410;SDS011;11878;51.774;7.220;2024-02-15T11:13:02;8.30;;;1.60;;
23410;SDS011;11878;51.774;7.220;2024-02-15T11:16:05;4.77;;;1.40;;
23410;SDS011;11878;51.774;7.220;2024-02-15T11:19:07;4.73;;;1.50;;
23410;SDS011;11878;51.774;7.220;2024-02-15T11:22:12;7.33;;;2.63;;
23410;SDS011;11878;51.774;7.220;2024-02-15T11:25:16;9.73;;;1.93;;
23410;SDS011;11878;51.774;7.220;2024-02-15T11:28:43;4.30;;;1.50;;
23410;SDS011;11878;51.774;7.220;2024-02-15T11:31:54;4.83;;;1.67;;
23410;SDS011;11878;51.774;7.220;2024-02-15T11:35:03;9.67;;;1.97;;
23410;SDS011;11878;51.774;7.220;2024-02-15T11:38:20;5.77;;;1.70;;
23410;SDS011;11878;51.774;7.220;2024-02-15T11:41:29;4.73;;;1.60;;
23410;SDS011;11878;51.774;7.220;2024-02-15T11:44:31;4.70;;;1.57;;
23410;SDS011;11878;51.774;7.220;2024-02-15T11:47:35;5.87;;;1.73;;
23410;SDS011;11878;51.774;7.220;2024-02-15T11:50:39;8.10;;;1.80;;
23410;SDS011;11878;51.774;7.220;2024-02-15T11:53:41;3.37;;;1.37;;
23410;SDS011;11878;51.774;7.220;2024-02-15T11:59:49;3.57;;;1.53;;
23410;SDS011;11878;51.774;7.220;2024-02-15T12:03:14;6.10;;;1.33;;
23410;SDS011;11878;51.774;7.220;2024-02-15T12:06:35;4.30;;;1.10;;
23410;SDS011;11878;51.774;7.220;2024-02-15T12:09:59;4.47;;;1.17;;
23410;SDS011;11878;51.774;7.220;2024-02-15T12:13:19;6.67;;;1.30;;
23410;SDS011;11878;51.774;7.220;2024-02-15T12:16:40;2.30;;;0.90;;
23410;SDS011;11878;51.774;7.220;2024-02-15T12:20:01;2.87;;;1.23;;
23410;SDS011;11878;51.774;7.220;2024-02-15T12:23:09;3.90;;;1.00;;
23410;SDS011;11878;51.774;7.220;2024-02-15T12:26:12;6.37;;;0.77;;
23410;SDS011;11878;51.774;7.220;2024-02-15T12:29:16;3.53;;;1.10;;
23410;SDS011;11878;51.774;7.220;2024-02-15T12:32:22;3.17;;;0.97;;
23410;SDS011;11878;51.774;7.220;2024-02-15T12:35:28;7.20;;;2.47;;
23410;SDS011;11878;51.774;7.220;2024-02-15T12:38:30;7.47;;;1.50;;
23410;SDS011;11878;51.774;7.220;2024-02-15T12:41:32;4.13;;;1.00;;
23410;SDS011;11878;51.774;7.220;2024-02-15T12:44:34;3.33;;;1.00;;
23410;SDS011;11878;51.774;7.220;2024-02-15T12:47:36;1.27;;;0.80;;
23410;SDS011;11878;51.774;7.220;2024-02-15T12:50:39;4.33;;;1.20;;
23410;SDS011;11878;51.774;7.220;2024-02-15T12:53:41;2.60;;;0.80;;
23410;SDS011;11878;51.774;7.220;2024-02-15T12:56:44;6.13;;;1.33;;
23410;SDS011;11878;51.774;7.220;2024-02-15T12:59:46;3.27;;;1.00;;
23410;SDS011;11878;51.774;7.220;2024-02-15T13:02:49;5.50;;;1.17;;
23410;SDS011;11878;51.774;7.220;2024-02-15T13:05:52;3.53;;;0.90;;
23410;SDS011;11878;51.774;7.220;2024-02-15T13:08:54;3.60;;;0.80;;
23410;SDS011;11878;51.774;7.220;2024-02-15T13:11:56;3.27;;;1.13;;
23410;SDS011;11878;51.774;7.220;2024-02-15T13:15:00;3.37;;;1.20;;
23410;SDS011;11878;51.774;7.220;2024-02-15T13:18:06;4.20;;;1.17;;
23410;SDS011;11878;51.774;7.220;2024-02-15T13:21:12;2.13;;;0.97;;
23410;SDS011;11878;51.774;7.220;2024-02-15T13:24:13;6.17;;;1.10;;
23410;SDS011;11878;51.774;7.220;2024-02-15T13:27:16;5.27;;;0.93;;
23410;SDS011;11878;51.774;7.220;2024-02-15T13:30:18;5.43;;;1.10;;
23410;SDS011;11878;51.774;7.220;2024-02-15T13:33:25;3.33;;;0.80;;
23410;SDS011;11878;51.774;7.220;2024-02-15T13:36:30;3.13;;;1.03;;
23410;SDS011;11878;51.774;7.220;2024-02-15T13:39:32;1.90;;;1.00;;
23410;SDS011;11878;51.774;7.220;2024-02-15T13:42:34;2.40;;;0.90;;
23410;SDS011;11878;51.774;7.220;2024-02-15T13:45:38;4.63;;;0.93;;
23410;SDS011;11878;51.774;7.220;2024-02-15T13:48:42;1.90;;;0.60;;
23410;SDS011;11878;51.774;7.220;2024-02-15T13:51:45;3.73;;;0.90;;
23410;SDS011;11878;51.774;7.220;2024-02-15T13:54:47;2.87;;;0.70;;
23410;SDS011;11878;51.774;7.220;2024-02-15T13:57:50;2.57;;;1.00;;
23410;SDS011;11878;51.774;7.220;2024-02-15T14:00:52;4.90;;;1.67;;
23410;SDS011;11878;51.774;7.220;2024-02-15T14:03:54;37.00;;;10.37;;
23410;SDS011;11878;51.774;7.220;2024-02-15T14:06:57;12.10;;;3.87;;
23410;SDS011;11878;51.774;7.220;2024-02-15T14:09:59;7.73;;;1.50;;
23410;SDS011;11878;51.774;7.220;2024-02-15T14:13:03;2.07;;;0.60;;
23410;SDS011;11878;51.774;7.220;2024-02-15T14:16:10;1.90;;;1.20;;
23410;SDS011;11878;51.774;7.220;2024-02-15T14:19:13;2.63;;;0.70;;
23410;SDS011;11878;51.774;7.220;2024-02-15T14:22:15;2.13;;;0.80;;
23410;SDS011;11878;51.774;7.220;2024-02-15T14:25:18;3.60;;;0.87;;
23410;SDS011;11878;51.774;7.220;2024-02-15T14:28:20;7.27;;;1.53;;
23410;SDS011;11878;51.774;7.220;2024-02-15T14:31:22;1.10;;;0.60;;
23410;SDS011;11878;51.774;7.220;2024-02-15T14:34:43;3.33;;;0.70;;
23410;SDS011;11878;51.774;7.220;2024-02-15T14:37:46;2.20;;;0.87;;
23410;SDS011;11878;51.774;7.220;2024-02-15T14:40:50;1.77;;;0.50;;
23410;SDS011;11878;51.774;7.220;2024-02-15T14:43:56;3.40;;;1.00;;
23410;SDS011;11878;51.774;7.220;2024-02-15T14:46:58;5.07;;;0.83;;
23410;SDS011;11878;51.774;7.220;2024-02-15T14:50:01;3.07;;;1.00;;
23410;SDS011;11878;51.774;7.220;2024-02-15T14:53:03;2.30;;;0.83;;
23410;SDS011;11878;51.774;7.220;2024-02-15T14:56:05;3.27;;;0.87;;
23410;SDS011;11878;51.774;7.220;2024-02-15T14:59:09;4.80;;;1.30;;
23410;SDS011;11878;51.774;7.220;2024-02-15T15:02:12;3.20;;;1.20;;
23410;SDS011;11878;51.774;7.220;2024-02-15T15:05:15;3.87;;;0.90;;
23410;SDS011;11878;51.774;7.220;2024-02-15T15:08:36;4.97;;;0.80;;
23410;SDS011;11878;51.774;7.220;2024-02-15T15:11:57;2.30;;;1.00;;
23410;SDS011;11878;51.774;7.220;2024-02-15T15:15:18;5.07;;;1.93;;
23410;SDS011;11878;51.774;7.220;2024-02-15T15:18:20;4.20;;;0.90;;
23410;SDS011;11878;51.774;7.220;2024-02-15T15:21:23;3.50;;;1.03;;
23410;SDS011;11878;51.774;7.220;2024-02-15T15:24:25;4.23;;;0.90;;
23410;SDS011;11878;51.774;7.220;2024-02-15T15:27:27;2.27;;;1.07;;
23410;SDS011;11878;51.774;7.220;2024-02-15T15:30:30;4.13;;;0.77;;
23410;SDS011;11878;51.774;7.220;2024-02-15T15:33:32;7.93;;;1.23;;
23410;SDS011;11878;51.774;7.220;2024-02-15T15:36:36;4.60;;;0.97;;
23410;SDS011;11878;51.774;7.220;2024-02-15T15:39:38;0.73;;;0.50;;
23410;SDS011;11878;51.774;7.220;2024-02-15T15:42:41;4.60;;;0.63;;
23410;SDS011;11878;51.774;7.220;2024-02-15T15:45:44;3.20;;;1.17;;
23410;SDS011;11878;51.774;7.220;2024-02-15T15:48:46;1.70;;;0.83;;
23410;SDS011;11878;51.774;7.220;2024-02-15T15:51:49;2.07;;;0.90;;
23410;SDS011;11878;51.774;7.220;2024-02-15T15:54:52;1.87;;;0.50;;
23410;SDS011;11878;51.774;7.220;2024-02-15T15:57:55;7.90;;;0.60;;
23410;SDS011;11878;51.774;7.220;2024-02-15T16:00:58;3.73;;;0.90;;
23410;SDS011;11878;51.774;7.220;2024-02-15T16:04:01;2.57;;;0.80;;
23410;SDS011;11878;51.774;7.220;2024-02-15T16:07:04;1.37;;;0.60;;
23410;SDS011;11878;51.774;7.220;2024-02-15T16:10:07;5.13;;;0.90;;
23410;SDS011;11878;51.774;7.220;2024-02-15T16:13:12;2.40;;;0.70;;
23410;SDS011;11878;51.774;7.220;2024-02-15T16:16:15;6.27;;;0.97;;
23410;SDS011;11878;51.774;7.220;2024-02-15T16:19:17;8.60;;;1.13;;
23410;SDS011;11878;51.774;7.220;2024-02-15T16:22:20;5.47;;;0.97;;
23410;SDS011;11878;51.774;7.220;2024-02-15T16:25:23;4.63;;;1.37;;
23410;SDS011;11878;51.774;7.220;2024-02-15T16:28:26;3.70;;;1.03;;
23410;SDS011;11878;51.774;7.220;2024-02-15T16:31:28;7.13;;;1.10;;
23410;SDS011;11878;51.774;7.220;2024-02-15T16:34:30;2.40;;;1.03;;
23410;SDS011;11878;51.774;7.220;2024-02-15T16:37:32;4.60;;;1.13;;
23410;SDS011;11878;51.774;7.220;2024-02-15T16:40:34;3.30;;;1.20;;
23410;SDS011;11878;51.774;7.220;2024-02-15T16:43:36;3.47;;;1.30;;
23410;SDS011;11878;51.774;7.220;2024-02-15T16:46:37;9.70;;;3.30;;
23410;SDS011;11878;51.774;7.220;2024-02-15T16:49:39;12.73;;;3.40;;
23410;SDS011;11878;51.774;7.220;2024-02-15T16:52:42;7.27;;;1.80;;
23410;SDS011;11878;51.774;7.220;2024-02-15T16:55:44;3.47;;;2.00;;
23410;SDS011;11878;51.774;7.220;2024-02-15T16:58:47;4.70;;;2.20;;
23410;SDS011;11878;51.774;7.220;2024-02-15T17:01:49;6.00;;;3.13;;
23410;SDS011;11878;51.774;7.220;2024-02-15T17:04:53;9.20;;;4.87;;
23410;SDS011;11878;51.774;7.220;2024-02-15T17:07:56;7.87;;;4.10;;
23410;SDS011;11878;51.774;7.220;2024-02-15T17:10:59;7.90;;;3.27;;
23410;SDS011;11878;51.774;7.220;2024-02-15T17:14:03;6.17;;;2.90;;
23410;SDS011;11878;51.774;7.220;2024-02-15T17:17:04;10.67;;;3.23;;
23410;SDS011;11878;51.774;7.220;2024-02-15T17:20:06;4.70;;;2.60;;
23410;SDS011;11878;51.774;7.220;2024-02-15T17:23:16;7.40;;;2.10;;
23410;SDS011;11878;51.774;7.220;2024-02-15T17:26:18;5.50;;;2.17;;
23410;SDS011;11878;51.774;7.220;2024-02-15T17:29:20;7.77;;;2.03;;
23410;SDS011;11878;51.774;7.220;2024-02-15T17:32:22;2.83;;;1.50;;
23410;SDS011;11878;51.774;7.220;2024-02-15T17:35:24;2.63;;;1.40;;
23410;SDS011;11878;51.774;7.220;2024-02-15T17:38:27;3.73;;;1.50;;
23410;SDS011;11878;51.774;7.220;2024-02-15T17:41:30;3.43;;;1.63;;
23410;SDS011;11878;51.774;7.220;2024-02-15T17:44:32;2.73;;;1.50;;
23410;SDS011;11878;51.774;7.220;2024-02-15T17:47:35;6.27;;;3.20;;
23410;SDS011;11878;51.774;7.220;2024-02-15T17:50:39;10.83;;;3.90;;
23410;SDS011;11878;51.774;7.220;2024-02-15T17:53:41;6.93;;;2.90;;
23410;SDS011;11878;51.774;7.220;2024-02-15T17:56:45;6.93;;;3.17;;
23410;SDS011;11878;51.774;7.220;2024-02-15T17:59:49;5.10;;;1.50;;
23410;SDS011;11878;51.774;7.220;2024-02-15T18:02:51;6.73;;;1.97;;
23410;SDS011;11878;51.774;7.220;2024-02-15T18:05:53;5.13;;;1.70;;
23410;SDS011;11878;51.774;7.220;2024-02-15T18:08:55;4.90;;;2.13;;
23410;SDS011;11878;51.774;7.220;2024-02-15T18:11:57;3.70;;;2.30;;
23410;SDS011;11878;51.774;7.220;2024-02-15T18:15:01;3.17;;;2.37;;
23410;SDS011;11878;51.774;7.220;2024-02-15T18:18:03;4.23;;;1.97;;
23410;SDS011;11878;51.774;7.220;2024-02-15T18:21:05;3.87;;;1.30;;
23410;SDS011;11878;51.774;7.220;2024-02-15T18:24:07;5.97;;;1.40;;
23410;SDS011;11878;51.774;7.220;2024-02-15T18:27:12;4.10;;;1.20;;
23410;SDS011;11878;51.774;7.220;2024-02-15T18:30:15;2.67;;;1.30;;
23410;SDS011;11878;51.774;7.220;2024-02-15T18:33:21;2.70;;;1.10;;